sensor_id;sensor_type;location;lat;lon;timestamp;pressure;altitude;pressure_sealevel;temperature;humidity
70921;BME280;58572;48.110;19.838;2023-05-23T00:02:14;97542.38;;;17.24;60.81
70921;BME280;58572;48.110;19.838;2023-05-23T00:04:41;97503.06;;;16.91;61.03
70921;BME280;58572;48.110;19.838;2023-05-23T00:07:10;97434.06;;;16.72;60.64
70921;BME280;58572;48.110;19.838;2023-05-23T00:09:37;97532.66;;;17.06;60.74
70921;BME280;58572;48.110;19.838;2023-05-23T00:12:04;97536.22;;;17.28;60.65
70921;BME280;58572;48.110;19.838;2023-05-23T00:14:31;97536.69;;;17.09;61.00
70921;BME280;58572;48.110;19.838;2023-05-23T00:16:59;97542.38;;;15.38;68.43
70921;BME280;58572;48.110;19.838;2023-05-23T00:19:26;97537.44;;;16.68;62.62
70921;BME280;58572;48.110;19.838;2023-05-23T00:21:54;97499.25;;;17.04;61.23
70921;BME280;58572;48.110;19.838;2023-05-23T00:24:24;97532.47;;;17.11;62.49
70921;BME280;58572;48.110;19.838;2023-05-23T00:26:51;97532.13;;;16.92;62.03
70921;BME280;58572;48.110;19.838;2023-05-23T00:29:18;97537.34;;;16.00;64.17
70921;BME280;58572;48.110;19.838;2023-05-23T00:31:46;97471.97;;;15.29;65.17
70921;BME280;58572;48.110;19.838;2023-05-23T00:34:13;97541.47;;;16.15;63.29
70921;BME280;58572;48.110;19.838;2023-05-23T00:36:42;97539.78;;;17.07;61.26
70921;BME280;58572;48.110;19.838;2023-05-23T00:39:12;97524.50;;;17.18;60.85
70921;BME280;58572;48.110;19.838;2023-05-23T00:41:45;97536.28;;;17.40;60.22
70921;BME280;58572;48.110;19.838;2023-05-23T00:44:13;97534.94;;;17.25;60.93
70921;BME280;58572;48.110;19.838;2023-05-23T00:46:40;97530.94;;;17.22;61.56
70921;BME280;58572;48.110;19.838;2023-05-23T00:49:08;97533.47;;;17.07;60.96
70921;BME280;58572;48.110;19.838;2023-05-23T00:51:36;97530.91;;;17.02;61.06
70921;BME280;58572;48.110;19.838;2023-05-23T00:54:04;97430.53;;;16.63;60.66
70921;BME280;58572;48.110;19.838;2023-05-23T00:56:31;97524.75;;;17.26;60.59
70921;BME280;58572;48.110;19.838;2023-05-23T00:59:00;97525.97;;;17.37;60.94
70921;BME280;58572;48.110;19.838;2023-05-23T01:01:27;97532.00;;;17.09;61.84
70921;BME280;58572;48.110;19.838;2023-05-23T01:03:54;97526.22;;;17.02;61.74
70921;BME280;58572;48.110;19.838;2023-05-23T01:06:22;97530.38;;;17.08;61.38
70921;BME280;58572;48.110;19.838;2023-05-23T01:08:50;97525.69;;;17.09;61.72
70921;BME280;58572;48.110;19.838;2023-05-23T01:11:23;97515.03;;;17.07;61.69
70921;BME280;58572;48.110;19.838;2023-05-23T01:13:58;97492.72;;;16.88;62.03
70921;BME280;58572;48.110;19.838;2023-05-23T01:16:35;97520.94;;;16.97;61.82
70921;BME280;58572;48.110;19.838;2023-05-23T01:19:36;97464.47;;;16.67;62.36
70921;BME280;58572;48.110;19.838;2023-05-23T01:22:10;97519.19;;;16.92;61.75
70921;BME280;58572;48.110;19.838;2023-05-23T01:24:46;97319.19;;;15.61;61.67
70921;BME280;58572;48.110;19.838;2023-05-23T01:27:25;97452.06;;;16.52;61.55
70921;BME280;58572;48.110;19.838;2023-05-23T01:29:59;97516.59;;;16.96;62.44
70921;BME280;58572;48.110;19.838;2023-05-23T01:32:29;97516.84;;;16.82;62.99
70921;BME280;58572;48.110;19.838;2023-05-23T01:34:58;97466.78;;;16.47;62.11
70921;BME280;58572;48.110;19.838;2023-05-23T01:37:26;97509.81;;;16.94;61.61
70921;BME280;58572;48.110;19.838;2023-05-23T01:39:54;97511.22;;;17.00;62.04
70921;BME280;58572;48.110;19.838;2023-05-23T01:42:21;97476.56;;;16.66;62.20
70921;BME280;58572;48.110;19.838;2023-05-23T01:44:48;97514.63;;;16.76;63.28
70921;BME280;58572;48.110;19.838;2023-05-23T01:47:17;97519.59;;;16.82;62.53
70921;BME280;58572;48.110;19.838;2023-05-23T01:49:44;97520.84;;;16.85;62.20
70921;BME280;58572;48.110;19.838;2023-05-23T01:52:13;97513.47;;;16.77;63.16
70921;BME280;58572;48.110;19.838;2023-05-23T01:54:42;97482.66;;;16.63;62.57
70921;BME280;58572;48.110;19.838;2023-05-23T01:57:09;97511.69;;;16.81;62.57
70921;BME280;58572;48.110;19.838;2023-05-23T01:59:37;97502.38;;;16.73;62.67
70921;BME280;58572;48.110;19.838;2023-05-23T02:02:04;97502.88;;;16.67;62.84
70921;BME280;58572;48.110;19.838;2023-05-23T02:04:32;97498.66;;;16.60;62.87
70921;BME280;58572;48.110;19.838;2023-05-23T02:07:00;97495.91;;;16.60;62.39
70921;BME280;58572;48.110;19.838;2023-05-23T02:09:27;97501.88;;;16.63;63.63
70921;BME280;58572;48.110;19.838;2023-05-23T02:11:54;97380.16;;;15.87;62.81
70921;BME280;58572;48.110;19.838;2023-05-23T02:14:21;97499.00;;;16.59;63.05
70921;BME280;58572;48.110;19.838;2023-05-23T02:16:51;97504.34;;;16.55;62.60
70921;BME280;58572;48.110;19.838;2023-05-23T02:19:18;97406.72;;;15.95;62.61
70921;BME280;58572;48.110;19.838;2023-05-23T02:21:47;97494.41;;;16.80;62.40
70921;BME280;58572;48.110;19.838;2023-05-23T02:24:14;97494.16;;;16.65;63.18
70921;BME280;58572;48.110;19.838;2023-05-23T02:26:41;97493.94;;;16.78;62.40
70921;BME280;58572;48.110;19.838;2023-05-23T02:29:08;97489.72;;;16.81;62.20
70921;BME280;58572;48.110;19.838;2023-05-23T02:31:36;97500.75;;;16.64;63.36
70921;BME280;58572;48.110;19.838;2023-05-23T02:34:03;97493.03;;;16.66;62.43
70921;BME280;58572;48.110;19.838;2023-05-23T02:36:30;97490.28;;;16.57;63.10
70921;BME280;58572;48.110;19.838;2023-05-23T02:39:00;97490.63;;;16.55;64.39
70921;BME280;58572;48.110;19.838;2023-05-23T02:41:27;97491.00;;;16.45;63.15
70921;BME280;58572;48.110;19.838;2023-05-23T02:43:54;97486.75;;;16.56;63.22
70921;BME280;58572;48.110;19.838;2023-05-23T02:46:21;97490.44;;;16.69;62.48
70921;BME280;58572;48.110;19.838;2023-05-23T02:48:48;97477.03;;;16.68;62.53
70921;BME280;58572;48.110;19.838;2023-05-23T02:51:15;97402.41;;;16.15;62.55
70921;BME280;58572;48.110;19.838;2023-05-23T02:53:42;97477.03;;;16.68;62.63
70921;BME280;58572;48.110;19.838;2023-05-23T02:56:10;97475.75;;;16.56;63.41
70921;BME280;58572;48.110;19.838;2023-05-23T02:58:38;97420.38;;;16.04;63.39
70921;BME280;58572;48.110;19.838;2023-05-23T03:01:05;97487.78;;;16.43;63.17
70921;BME280;58572;48.110;19.838;2023-05-23T03:03:32;97478.69;;;16.51;61.79
70921;BME280;58572;48.110;19.838;2023-05-23T03:05:59;97473.22;;;16.51;63.24
70921;BME280;58572;48.110;19.838;2023-05-23T03:08:26;97478.56;;;16.48;63.41
70921;BME280;58572;48.110;19.838;2023-05-23T03:10:53;97480.50;;;16.47;63.36
70921;BME280;58572;48.110;19.838;2023-05-23T03:13:22;97476.97;;;16.47;63.03
70921;BME280;58572;48.110;19.838;2023-05-23T03:15:48;97482.16;;;16.40;63.66
70921;BME280;58572;48.110;19.838;2023-05-23T03:18:15;97473.22;;;16.22;63.93
70921;BME280;58572;48.110;19.838;2023-05-23T03:20:42;97458.59;;;16.09;63.27
70921;BME280;58572;48.110;19.838;2023-05-23T03:23:09;97472.88;;;16.23;63.07
70921;BME280;58572;48.110;19.838;2023-05-23T03:25:36;97467.44;;;16.44;63.19
70921;BME280;58572;48.110;19.838;2023-05-23T03:28:03;97491.56;;;16.59;62.32
70921;BME280;58572;48.110;19.838;2023-05-23T03:30:32;97488.06;;;16.50;62.61
70921;BME280;58572;48.110;19.838;2023-05-23T03:32:59;97480.97;;;16.49;62.76
70921;BME280;58572;48.110;19.838;2023-05-23T03:35:26;97416.19;;;16.07;62.88
70921;BME280;58572;48.110;19.838;2023-05-23T03:37:53;97489.91;;;16.38;63.87
70921;BME280;58572;48.110;19.838;2023-05-23T03:40:20;97488.94;;;16.42;63.11
70921;BME280;58572;48.110;19.838;2023-05-23T03:43:00;97480.69;;;16.42;63.64
70921;BME280;58572;48.110;19.838;2023-05-23T03:45:28;97478.69;;;16.51;63.29
70921;BME280;58572;48.110;19.838;2023-05-23T03:47:56;97481.63;;;16.46;62.97
70921;BME280;58572;48.110;19.838;2023-05-23T03:50:23;97483.09;;;16.44;63.37
70921;BME280;58572;48.110;19.838;2023-05-23T03:52:50;97485.72;;;16.40;63.27
70921;BME280;58572;48.110;19.838;2023-05-23T03:55:18;97493.47;;;16.38;63.96
70921;BME280;58572;48.110;19.838;2023-05-23T03:57:47;97488.88;;;16.21;63.92
70921;BME280;58572;48.110;19.838;2023-05-23T04:00:14;97494.25;;;16.09;65.10
70921;BME280;58572;48.110;19.838;2023-05-23T04:02:41;97489.66;;;16.22;63.97
70921;BME280;58572;48.110;19.838;2023-05-23T04:05:12;97489.78;;;16.34;63.37
70921;BME280;58572;48.110;19.838;2023-05-23T04:07:39;97491.09;;;15.90;65.00
70921;BME280;58572;48.110;19.838;2023-05-23T04:10:08;97485.97;;;16.18;63.91
70921;BME280;58572;48.110;19.838;2023-05-23T04:12:35;97475.44;;;15.90;64.99
70921;BME280;58572;48.110;19.838;2023-05-23T04:15:03;97485.50;;;16.16;64.18
70921;BME280;58572;48.110;19.838;2023-05-23T04:17:30;97487.56;;;16.66;62.58
70921;BME280;58572;48.110;19.838;2023-05-23T04:19:58;97470.56;;;16.64;62.53
70921;BME280;58572;48.110;19.838;2023-05-23T04:22:26;97482.38;;;16.55;62.97
70921;BME280;58572;48.110;19.838;2023-05-23T04:24:53;97482.97;;;16.40;64.26
70921;BME280;58572;48.110;19.838;2023-05-23T04:27:20;97481.63;;;16.46;62.87
70921;BME280;58572;48.110;19.838;2023-05-23T04:29:50;97478.03;;;16.54;63.00
70921;BME280;58572;48.110;19.838;2023-05-23T04:32:18;97486.47;;;15.73;70.48
70921;BME280;58572;48.110;19.838;2023-05-23T04:34:47;97483.38;;;15.83;67.31
70921;BME280;58572;48.110;19.838;2023-05-23T04:37:14;97479.75;;;16.38;67.13
70921;BME280;58572;48.110;19.838;2023-05-23T04:39:43;97482.56;;;16.21;65.87
70921;BME280;58572;48.110;19.838;2023-05-23T04:42:11;97462.94;;;15.72;69.92
70921;BME280;58572;48.110;19.838;2023-05-23T04:44:38;97483.41;;;15.75;69.13
70921;BME280;58572;48.110;19.838;2023-05-23T04:47:06;97485.47;;;15.52;74.28
70921;BME280;58572;48.110;19.838;2023-05-23T04:49:35;97480.34;;;15.59;76.94
70921;BME280;58572;48.110;19.838;2023-05-23T04:52:02;97473.72;;;15.77;76.24
70921;BME280;58572;48.110;19.838;2023-05-23T04:54:29;97476.69;;;16.02;76.47
70921;BME280;58572;48.110;19.838;2023-05-23T04:56:59;97475.66;;;16.15;75.82
70921;BME280;58572;48.110;19.838;2023-05-23T04:59:26;97478.09;;;16.16;74.82
70921;BME280;58572;48.110;19.838;2023-05-23T05:01:53;97476.31;;;16.12;75.54
70921;BME280;58572;48.110;19.838;2023-05-23T05:04:20;97489.63;;;15.92;76.26
70921;BME280;58572;48.110;19.838;2023-05-23T05:06:47;97470.03;;;16.11;75.77
70921;BME280;58572;48.110;19.838;2023-05-23T05:09:15;97476.41;;;15.94;77.35
70921;BME280;58572;48.110;19.838;2023-05-23T05:11:42;97474.34;;;16.21;73.62
70921;BME280;58572;48.110;19.838;2023-05-23T05:14:10;97463.94;;;16.35;75.56
70921;BME280;58572;48.110;19.838;2023-05-23T05:16:38;97463.13;;;16.73;72.80
70921;BME280;58572;48.110;19.838;2023-05-23T05:19:05;97454.88;;;16.43;74.82
70921;BME280;58572;48.110;19.838;2023-05-23T05:21:32;97463.88;;;16.82;71.58
70921;BME280;58572;48.110;19.838;2023-05-23T05:23:59;97436.50;;;16.35;76.71
70921;BME280;58572;48.110;19.838;2023-05-23T05:26:26;97406.81;;;16.08;75.61
70921;BME280;58572;48.110;19.838;2023-05-23T05:28:53;97470.28;;;16.56;76.03
70921;BME280;58572;48.110;19.838;2023-05-23T05:31:23;97468.50;;;16.90;74.08
70921;BME280;58572;48.110;19.838;2023-05-23T05:33:50;97475.09;;;16.59;75.33
70921;BME280;58572;48.110;19.838;2023-05-23T05:36:19;97434.25;;;16.37;75.82
70921;BME280;58572;48.110;19.838;2023-05-23T05:38:46;97390.03;;;16.09;76.86
70921;BME280;58572;48.110;19.838;2023-05-23T05:41:13;97463.66;;;16.66;77.03
70921;BME280;58572;48.110;19.838;2023-05-23T05:43:40;97467.09;;;16.84;76.11
70921;BME280;58572;48.110;19.838;2023-05-23T05:46:07;97462.72;;;17.04;75.32
70921;BME280;58572;48.110;19.838;2023-05-23T05:48:36;97437.56;;;16.81;75.79
70921;BME280;58572;48.110;19.838;2023-05-23T05:51:03;97468.97;;;16.92;75.39
70921;BME280;58572;48.110;19.838;2023-05-23T05:53:30;97473.19;;;16.89;76.10
70921;BME280;58572;48.110;19.838;2023-05-23T05:55:58;97397.50;;;16.80;74.37
70921;BME280;58572;48.110;19.838;2023-05-23T05:58:25;97469.00;;;17.25;73.76
70921;BME280;58572;48.110;19.838;2023-05-23T06:00:53;97469.44;;;17.15;76.11
70921;BME280;58572;48.110;19.838;2023-05-23T06:03:21;97476.72;;;17.32;74.54
70921;BME280;58572;48.110;19.838;2023-05-23T06:05:50;97471.97;;;17.20;75.88
70921;BME280;58572;48.110;19.838;2023-05-23T06:08:17;97472.75;;;17.41;75.11
70921;BME280;58572;48.110;19.838;2023-05-23T06:10:44;97438.41;;;17.47;73.50
70921;BME280;58572;48.110;19.838;2023-05-23T06:13:11;97467.97;;;17.50;73.22
70921;BME280;58572;48.110;19.838;2023-05-23T06:15:39;97404.03;;;17.08;74.81
70921;BME280;58572;48.110;19.838;2023-05-23T06:18:06;97462.50;;;17.83;71.81
70921;BME280;58572;48.110;19.838;2023-05-23T06:20:33;97464.09;;;17.84;73.41
70921;BME280;58572;48.110;19.838;2023-05-23T06:23:02;97467.31;;;17.86;71.47
70921;BME280;58572;48.110;19.838;2023-05-23T06:25:30;97433.94;;;17.76;72.39
70921;BME280;58572;48.110;19.838;2023-05-23T06:27:57;97462.66;;;18.11;69.94
70921;BME280;58572;48.110;19.838;2023-05-23T06:30:25;97456.53;;;19.03;65.39
70921;BME280;58572;48.110;19.838;2023-05-23T06:32:53;97452.41;;;18.61;65.12
70921;BME280;58572;48.110;19.838;2023-05-23T06:35:21;97469.09;;;19.17;57.22
70921;BME280;58572;48.110;19.838;2023-05-23T06:37:48;97460.41;;;19.70;60.08
70921;BME280;58572;48.110;19.838;2023-05-23T06:40:17;97470.22;;;19.84;60.98
70921;BME280;58572;48.110;19.838;2023-05-23T06:42:45;97461.34;;;19.06;63.61
70921;BME280;58572;48.110;19.838;2023-05-23T06:45:12;97463.97;;;19.03;64.37
70921;BME280;58572;48.110;19.838;2023-05-23T06:47:40;97468.84;;;19.22;62.56
70921;BME280;58572;48.110;19.838;2023-05-23T06:50:10;97465.44;;;19.81;62.13
70921;BME280;58572;48.110;19.838;2023-05-23T06:52:37;97464.38;;;20.01;60.07
70921;BME280;58572;48.110;19.838;2023-05-23T06:55:07;97459.63;;;20.64;58.05
70921;BME280;58572;48.110;19.838;2023-05-23T06:57:40;97466.34;;;20.32;59.30
70921;BME280;58572;48.110;19.838;2023-05-23T07:00:09;97461.00;;;20.55;57.82
70921;BME280;58572;48.110;19.838;2023-05-23T07:02:38;97451.38;;;20.33;59.04
70921;BME280;58572;48.110;19.838;2023-05-23T07:05:06;97449.34;;;19.98;61.57
70921;BME280;58572;48.110;19.838;2023-05-23T07:07:33;97400.44;;;20.46;61.17
70921;BME280;58572;48.110;19.838;2023-05-23T07:10:01;97445.56;;;20.38;56.92
70921;BME280;58572;48.110;19.838;2023-05-23T07:12:28;97447.63;;;21.27;55.07
70921;BME280;58572;48.110;19.838;2023-05-23T07:14:57;97452.97;;;20.50;56.54
70921;BME280;58572;48.110;19.838;2023-05-23T07:17:24;97453.03;;;20.69;57.17
70921;BME280;58572;48.110;19.838;2023-05-23T07:19:54;97450.19;;;20.65;49.25
70921;BME280;58572;48.110;19.838;2023-05-23T07:22:21;97451.66;;;21.14;50.80
70921;BME280;58572;48.110;19.838;2023-05-23T07:24:48;97449.84;;;21.60;50.50
70921;BME280;58572;48.110;19.838;2023-05-23T07:27:15;97447.00;;;21.76;48.17
70921;BME280;58572;48.110;19.838;2023-05-23T07:29:43;97447.31;;;21.51;55.05
70921;BME280;58572;48.110;19.838;2023-05-23T07:32:12;97448.91;;;21.14;54.29
70921;BME280;58572;48.110;19.838;2023-05-23T07:34:39;97445.13;;;21.22;56.04
70921;BME280;58572;48.110;19.838;2023-05-23T07:37:06;97450.72;;;21.06;50.46
70921;BME280;58572;48.110;19.838;2023-05-23T07:39:33;97445.38;;;21.75;54.67
70921;BME280;58572;48.110;19.838;2023-05-23T07:42:00;97457.16;;;21.29;55.52
70921;BME280;58572;48.110;19.838;2023-05-23T07:44:27;97451.41;;;21.99;54.36
70921;BME280;58572;48.110;19.838;2023-05-23T07:46:55;97456.44;;;21.32;52.68
70921;BME280;58572;48.110;19.838;2023-05-23T07:49:24;97445.75;;;22.38;53.16
70921;BME280;58572;48.110;19.838;2023-05-23T07:51:51;97378.03;;;21.44;55.54
70921;BME280;58572;48.110;19.838;2023-05-23T07:54:18;97451.13;;;21.43;50.22
70921;BME280;58572;48.110;19.838;2023-05-23T07:56:45;97453.16;;;22.08;53.51
70921;BME280;58572;48.110;19.838;2023-05-23T07:59:12;97448.66;;;22.22;51.13
70921;BME280;58572;48.110;19.838;2023-05-23T08:01:39;97451.84;;;21.40;49.51
70921;BME280;58572;48.110;19.838;2023-05-23T08:04:06;97444.75;;;22.50;49.02
70921;BME280;58572;48.110;19.838;2023-05-23T08:06:35;97441.63;;;23.04;50.85
70921;BME280;58572;48.110;19.838;2023-05-23T08:09:03;97435.69;;;22.53;51.69
70921;BME280;58572;48.110;19.838;2023-05-23T08:11:31;97460.78;;;21.53;53.83
70921;BME280;58572;48.110;19.838;2023-05-23T08:13:58;97437.59;;;22.75;52.55
70921;BME280;58572;48.110;19.838;2023-05-23T08:16:25;97448.88;;;22.37;50.73
70921;BME280;58572;48.110;19.838;2023-05-23T08:18:52;97440.00;;;23.33;53.86
70921;BME280;58572;48.110;19.838;2023-05-23T08:21:19;97445.00;;;23.54;50.47
70921;BME280;58572;48.110;19.838;2023-05-23T08:23:48;97447.81;;;22.94;52.13
70921;BME280;58572;48.110;19.838;2023-05-23T08:26:15;97444.13;;;22.86;53.23
70921;BME280;58572;48.110;19.838;2023-05-23T08:28:42;97466.06;;;23.25;51.14
70921;BME280;58572;48.110;19.838;2023-05-23T08:31:09;97458.03;;;23.50;51.56
70921;BME280;58572;48.110;19.838;2023-05-23T08:33:37;97449.84;;;22.97;50.54
70921;BME280;58572;48.110;19.838;2023-05-23T08:36:04;97450.66;;;23.61;47.41
70921;BME280;58572;48.110;19.838;2023-05-23T08:38:31;97440.69;;;24.31;48.20
70921;BME280;58572;48.110;19.838;2023-05-23T08:41:00;97438.72;;;24.35;47.67
70921;BME280;58572;48.110;19.838;2023-05-23T08:43:27;97446.09;;;24.64;50.09
70921;BME280;58572;48.110;19.838;2023-05-23T08:45:55;97444.97;;;24.25;49.05
70921;BME280;58572;48.110;19.838;2023-05-23T08:48:24;97444.53;;;23.48;47.90
70921;BME280;58572;48.110;19.838;2023-05-23T08:50:52;97450.09;;;23.15;48.44
70921;BME280;58572;48.110;19.838;2023-05-23T08:53:20;97436.22;;;24.23;52.46
70921;BME280;58572;48.110;19.838;2023-05-23T08:55:49;97453.63;;;23.79;52.95
70921;BME280;58572;48.110;19.838;2023-05-23T08:58:18;97429.59;;;23.56;48.80
70921;BME280;58572;48.110;19.838;2023-05-23T09:00:47;97450.19;;;24.30;51.38
70921;BME280;58572;48.110;19.838;2023-05-23T09:03:16;97431.94;;;23.92;47.56
70921;BME280;58572;48.110;19.838;2023-05-23T09:05:44;97442.75;;;24.41;49.79
70921;BME280;58572;48.110;19.838;2023-05-23T09:08:12;97438.09;;;24.56;49.02
70921;BME280;58572;48.110;19.838;2023-05-23T09:10:40;97445.56;;;24.04;48.20
70921;BME280;58572;48.110;19.838;2023-05-23T09:13:08;97444.59;;;24.77;51.69
70921;BME280;58572;48.110;19.838;2023-05-23T09:15:36;97440.13;;;24.62;48.50
70921;BME280;58572;48.110;19.838;2023-05-23T09:18:03;97443.34;;;25.33;49.76
70921;BME280;58572;48.110;19.838;2023-05-23T09:20:30;97457.88;;;23.69;47.25
70921;BME280;58572;48.110;19.838;2023-05-23T09:22:58;97457.75;;;24.33;50.60
70921;BME280;58572;48.110;19.838;2023-05-23T09:25:25;97449.53;;;24.98;48.16
70921;BME280;58572;48.110;19.838;2023-05-23T09:27:52;97446.47;;;25.21;46.25
70921;BME280;58572;48.110;19.838;2023-05-23T09:30:21;97440.53;;;25.26;45.32
70921;BME280;58572;48.110;19.838;2023-05-23T09:33:02;97447.84;;;24.32;53.14
70921;BME280;58572;48.110;19.838;2023-05-23T09:35:30;97359.44;;;24.51;51.98
70921;BME280;58572;48.110;19.838;2023-05-23T09:37:57;97393.41;;;25.97;48.78
70921;BME280;58572;48.110;19.838;2023-05-23T09:40:29;97438.38;;;25.99;50.19
70921;BME280;58572;48.110;19.838;2023-05-23T09:43:01;97442.47;;;25.11;44.27
70921;BME280;58572;48.110;19.838;2023-05-23T09:45:30;97445.44;;;24.89;46.48
70921;BME280;58572;48.110;19.838;2023-05-23T09:47:59;97433.69;;;26.53;47.70
70921;BME280;58572;48.110;19.838;2023-05-23T09:50:30;97374.19;;;25.42;48.75
70921;BME280;58572;48.110;19.838;2023-05-23T09:52:59;97441.63;;;24.05;55.79
70921;BME280;58572;48.110;19.838;2023-05-23T09:55:26;97444.97;;;24.76;50.93
70921;BME280;58572;48.110;19.838;2023-05-23T09:57:54;97436.28;;;25.57;50.13
70921;BME280;58572;48.110;19.838;2023-05-23T10:00:23;97433.06;;;25.44;49.62
70921;BME280;58572;48.110;19.838;2023-05-23T10:02:54;97401.00;;;26.64;46.43
70921;BME280;58572;48.110;19.838;2023-05-23T10:05:35;97419.63;;;27.24;47.06
70921;BME280;58572;48.110;19.838;2023-05-23T10:08:07;97420.91;;;26.24;46.52
70921;BME280;58572;48.110;19.838;2023-05-23T10:13:44;97405.28;;;27.22;43.11
70921;BME280;58572;48.110;19.838;2023-05-23T10:16:15;97367.22;;;27.53;42.54
70921;BME280;58572;48.110;19.838;2023-05-23T10:18:50;97408.19;;;26.44;41.98
70921;BME280;58572;48.110;19.838;2023-05-23T10:21:24;97401.00;;;26.68;42.36
70921;BME280;58572;48.110;19.838;2023-05-23T10:23:57;97401.00;;;26.15;44.66
70921;BME280;58572;48.110;19.838;2023-05-23T10:26:25;97395.75;;;27.02;42.41
70921;BME280;58572;48.110;19.838;2023-05-23T10:28:54;97404.53;;;26.86;46.82
70921;BME280;58572;48.110;19.838;2023-05-23T10:31:23;97375.94;;;26.43;44.02
70921;BME280;58572;48.110;19.838;2023-05-23T10:33:54;97389.69;;;27.28;46.93
70921;BME280;58572;48.110;19.838;2023-05-23T10:36:32;97373.84;;;27.84;42.76
70921;BME280;58572;48.110;19.838;2023-05-23T10:39:05;97327.66;;;26.82;40.63
70921;BME280;58572;48.110;19.838;2023-05-23T10:41:40;97372.97;;;27.94;44.93
70921;BME280;58572;48.110;19.838;2023-05-23T10:44:11;97379.00;;;27.89;46.71
70921;BME280;58572;48.110;19.838;2023-05-23T10:46:52;97386.03;;;25.11;44.77
70921;BME280;58572;48.110;19.838;2023-05-23T10:49:19;97371.44;;;27.86;40.41
70921;BME280;58572;48.110;19.838;2023-05-23T10:51:50;97312.66;;;27.42;41.23
70921;BME280;58572;48.110;19.838;2023-05-23T10:54:18;97338.66;;;28.80;40.55
70921;BME280;58572;48.110;19.838;2023-05-23T10:56:45;97377.19;;;28.65;38.55
70921;BME280;58572;48.110;19.838;2023-05-23T10:59:19;97379.78;;;27.17;40.26
70921;BME280;58572;48.110;19.838;2023-05-23T11:01:50;97374.25;;;26.99;40.63
70921;BME280;58572;48.110;19.838;2023-05-23T11:04:24;97371.06;;;26.83;41.19
70921;BME280;58572;48.110;19.838;2023-05-23T11:06:54;97298.09;;;26.95;41.44
70921;BME280;58572;48.110;19.838;2023-05-23T11:09:22;97356.41;;;28.25;41.41
70921;BME280;58572;48.110;19.838;2023-05-23T11:11:59;97373.34;;;27.27;41.42
70921;BME280;58572;48.110;19.838;2023-05-23T11:14:52;97356.25;;;28.39;40.73
70921;BME280;58572;48.110;19.838;2023-05-23T11:17:29;97284.94;;;27.06;42.82
70921;BME280;58572;48.110;19.838;2023-05-23T11:19:58;97303.28;;;27.73;40.78
70921;BME280;58572;48.110;19.838;2023-05-23T11:22:28;97366.34;;;25.87;45.26
70921;BME280;58572;48.110;19.838;2023-05-23T11:24:57;97359.88;;;25.40;45.44
70921;BME280;58572;48.110;19.838;2023-05-23T11:27:29;97344.06;;;25.80;49.47
70921;BME280;58572;48.110;19.838;2023-05-23T11:29:58;97353.22;;;27.64;43.68
70921;BME280;58572;48.110;19.838;2023-05-23T11:32:27;97343.03;;;28.43;43.53
70921;BME280;58572;48.110;19.838;2023-05-23T11:34:55;97266.41;;;26.46;40.88
70921;BME280;58572;48.110;19.838;2023-05-23T11:37:25;97295.09;;;27.41;42.34
70921;BME280;58572;48.110;19.838;2023-05-23T11:39:53;97331.88;;;29.15;40.71
70921;BME280;58572;48.110;19.838;2023-05-23T11:42:21;97310.69;;;27.94;42.83
70921;BME280;58572;48.110;19.838;2023-05-23T11:44:49;97325.41;;;28.50;40.13
70921;BME280;58572;48.110;19.838;2023-05-23T11:47:16;97312.38;;;28.70;39.25
70921;BME280;58572;48.110;19.838;2023-05-23T11:49:45;97320.25;;;28.45;40.46
70921;BME280;58572;48.110;19.838;2023-05-23T11:52:13;97312.50;;;28.59;38.76
70921;BME280;58572;48.110;19.838;2023-05-23T11:54:40;97309.78;;;28.52;38.26
70921;BME280;58572;48.110;19.838;2023-05-23T11:57:10;97305.47;;;29.46;41.46
70921;BME280;58572;48.110;19.838;2023-05-23T11:59:39;97317.72;;;28.57;37.96
70921;BME280;58572;48.110;19.838;2023-05-23T12:02:07;97311.72;;;28.18;42.10
70921;BME280;58572;48.110;19.838;2023-05-23T12:04:34;97336.00;;;26.82;41.02
70921;BME280;58572;48.110;19.838;2023-05-23T12:07:04;97324.69;;;27.31;41.54
70921;BME280;58572;48.110;19.838;2023-05-23T12:09:40;97326.53;;;26.54;40.67
70921;BME280;58572;48.110;19.838;2023-05-23T12:12:08;97315.69;;;26.85;43.36
70921;BME280;58572;48.110;19.838;2023-05-23T12:14:37;97313.78;;;26.53;45.55
70921;BME280;58572;48.110;19.838;2023-05-23T12:17:10;97307.75;;;27.60;46.00
70921;BME280;58572;48.110;19.838;2023-05-23T12:19:38;97279.47;;;26.70;44.06
70921;BME280;58572;48.110;19.838;2023-05-23T12:22:06;97302.63;;;26.60;45.26
70921;BME280;58572;48.110;19.838;2023-05-23T12:24:33;97256.03;;;27.38;44.58
70921;BME280;58572;48.110;19.838;2023-05-23T12:27:01;97272.59;;;27.07;45.29
70921;BME280;58572;48.110;19.838;2023-05-23T12:29:30;97307.25;;;26.95;43.02
70921;BME280;58572;48.110;19.838;2023-05-23T12:32:00;97307.09;;;27.34;44.60
70921;BME280;58572;48.110;19.838;2023-05-23T12:34:31;97305.03;;;25.41;52.80
70921;BME280;58572;48.110;19.838;2023-05-23T12:36:59;97299.41;;;25.16;49.66
70921;BME280;58572;48.110;19.838;2023-05-23T12:39:28;97227.66;;;24.56;55.43
70921;BME280;58572;48.110;19.838;2023-05-23T12:42:06;97293.50;;;25.50;53.37
70921;BME280;58572;48.110;19.838;2023-05-23T12:44:34;97290.69;;;25.32;52.96
70921;BME280;58572;48.110;19.838;2023-05-23T12:47:04;97282.59;;;26.87;47.84
70921;BME280;58572;48.110;19.838;2023-05-23T12:49:31;97278.34;;;28.41;44.65
70921;BME280;58572;48.110;19.838;2023-05-23T12:51:58;97273.75;;;28.24;44.22
70921;BME280;58572;48.110;19.838;2023-05-23T12:54:25;97272.16;;;30.69;40.66
70921;BME280;58572;48.110;19.838;2023-05-23T12:56:52;97214.94;;;29.53;39.87
70921;BME280;58572;48.110;19.838;2023-05-23T12:59:20;97272.84;;;30.10;41.18
70921;BME280;58572;48.110;19.838;2023-05-23T13:01:47;97273.00;;;30.46;38.86